West Davis - southern half: Past 24 Hour Conditions

 

Pond Inlet Airport

04:00 AM EDT 24 October 2014
This table is a summary of hourly weather conditions for the past 24 hours.
Date / Time
(EDT)
Wind(knots) Conditions Visibility(km) Pressure(kPa) Air tempC) Relative humidity(%) Dew pointC) Wind Chill
24 October 2014
4:00 W 19 gust 24 Mainly Clear 16 101.5 -11 72 -15 -22
3:00 WSW 28 gust 34 Clear 16 101.4 -11 69 -16 -23
2:00 WSW 27 gust 32 Clear 16 101.3 -11 73 -15 -23
1:00 WSW 25 gust 33 Clear 16 101.3 -11 79 -14 -23
0:00 WSW 25 gust 33 Mainly Clear 16 101.2 -11 76 -15 -23
23 October 2014
23:00 WSW 27 gust 33 Mostly Cloudy 16 101.1 -11 78 -14 -23
22:00 SW 19 Clear 16 101.1 -11 80 -14 -22
21:00 SW 20 gust 25 Mainly Clear 16 101.1 -11 77 -14 -22
20:00 SSW 18 Mostly Cloudy 16 101.0 -12 80 -15 -23
19:00 WSW 12 gust 18 Cloudy 24 101.0 -11 70 -15 -19
18:00 SW 16 Mostly Cloudy 24 100.9 -11 76 -15 -21
17:00 SW 7 Mostly Cloudy 24 100.9 -12 70 -17 -19
16:00 SW 11 gust 16 Mostly Cloudy 32 100.9 -12 68 -17 -20
15:00 SW 21 Mostly Cloudy 32 100.9 -13 81 -15 -24
14:00 WSW 23 gust 29 Drifting Snow 24 100.8 -13 75 -17 -25
13:00 W 28 Drifting Snow 24 100.8 -13 76 -17 -27
12:00 WSW 27 gust 36 Drifting Snow 24 100.8 -14 75 -17 -27
11:00 WNW 18 gust 25 Light Snow 24 100.8 -13 75 -17 -24
10:00 W 20 Cloudy 16 100.8 -13 69 -17 -24
9:00 WSW 19 gust 24 Cloudy 16 100.8 -13 72 -17 -25
8:00 WSW 22 gust 29 Cloudy 16 100.8 -14 71 -18 -26
7:00 WSW 24 gust 30 Cloudy 16 100.8 -14 73 -18 -27
6:00 WSW 22 gust 29 Cloudy 16 100.8 -15 73 -19 -27
5:00 W 20 gust 25 Cloudy 16 100.8 -15 70 -20 -27
4:00 W 21 gust 27 Cloudy 16 100.8 -16 71 -20 -28
 
Map of Arctic - Eastern Arctic marine weather areas Baker Lake Airport Chesterfield Inlet Airport Coral Harbour Airport Gjoa Haven Airport Kugaaruk Airport Rankin Inlet Airport Shepherd Bay Airport Whale Cove Airport Arctic Bay Brevoort Island Qikiqtarjuaq Airport Cape Dorset Airport Cape Dyer Cape Hooper Clyde Airport Grise Fiord Airport Hall Beach Airport Igloolik Airport Iqaluit Airport Longstaff Bluff Pangnirtung Airport Pond Inlet Airport Repulse Bay Airport Resolute Airport Resolution Island Rowley Island Airport Taloyoak Airport Wager Bay Akulivik Airport Ivujivik Airport Puvirnituq Airport Kangiqsujuaq Airport Kangirsuk Airport Quaqtaq Airport Tasiujaq Airport Cape Kakkiviak Cape Kiglapait Nain Airport Saglek Cape Mercy Kimmirut Airport Aupaluk Airport Salluit Airport Kangiqsualujjuaq Airport Fort Ross
Legend: buoyBuoy land stationLand Station